UNR Ag. Experiment Farm, Sparks, Nevada Weather observations

Data are for 10 minute period ending at time listed.
 Day   Time   Solar   Ave.   Ave.  Ave.  Vector  Max.   Baro.   Total    
  of    of     Rad.   Air    Rel.  Wind   Wind   Wind  Press.  Precip.   
Year   Day            Temp.  Hum.  Speed  Dir.   Gust                    
2014   (PST)  Kw/m2    F      %     mph   deg.    mph    mb.     in.     
-------------------------------------------------------------------------
 297    6:30   0.01   28.9    94    0.7    35     1.6   866.7    0.00 
 297    6:40   0.01   30.4    92    0.8   102     3.7   866.8    0.00 
 297    6:50   0.01   27.6    92    0.6   164     3.4   866.8    0.00 
 297    7:00   0.06   28.7    93    1.1   182     3.2   866.9    0.00 
 297    7:10   0.11   30.5    93    1.8   158     4.6   867.0    0.00 
 297    7:20   0.12   33.0    92    1.7   192     4.3   867.1    0.00 
 297    7:30   0.14   35.8    90    0.5   189     2.0   867.1    0.00 
 297    7:40   0.16   38.3    85    1.1   212     2.9   867.1    0.00 
 297    7:50   0.19   41.5    76    1.0   125     2.2   867.2    0.00 
 297    8:00   0.21   43.5    69    1.2   116     3.1   867.1    0.00 
 297    8:10   0.24   44.8    65    0.8   117     2.9   867.0    0.00 
 297    8:20   0.27   46.5    61    0.7    88     2.3   867.0    0.00 
 297    8:30   0.30   47.7    58    1.0    54     2.3   866.9    0.00 
 297    8:40   0.32   47.2    58    1.1    11     3.1   866.9    0.00 
 297    8:50   0.35   48.5    58    0.7     0     2.7   866.8    0.00 
 297    9:00   0.38   49.2    56    0.7    20     2.6   866.7    0.00 
 297    9:10   0.40   51.0    54    1.0    90     2.9   866.6    0.00 
 297    9:20   0.42   51.9    50    1.1     8     3.3   866.4    0.00 
 297    9:30   0.45   51.9    52    2.3   306     5.4   866.3    0.00 
 297    9:40   0.47   52.5    52    1.5   278     3.7   866.2    0.00 
 297    9:50   0.49   54.6    51    1.8   353     3.5   866.1    0.00 
 297   10:00   0.50   55.0    48    1.5   287     3.7   866.0    0.00 
 297   10:10   0.52   57.2    44    0.6   299     3.2   865.8    0.00 
 297   10:20   0.54   58.6    45    1.8    18     4.5   865.7    0.00 
 297   10:30   0.55   59.1    42    1.6    22     3.5   865.6    0.00 
 297   10:40   0.57   60.6    43    1.8    24     4.3   865.5    0.00 
 297   10:50   0.58   62.4    39    1.5    12     4.4   865.3    0.00 
 297   11:00   0.59   63.3    35    2.5    22     4.2   865.1    0.00 
 297   11:10   0.60   64.4    33    2.9   324     5.2   865.1    0.00 
 297   11:20   0.60   66.4    30    1.6   340     4.7   865.0    0.00 
 297   11:30   0.61   68.6    27    2.7   356     5.6   864.9    0.00 
 297   11:40   0.61   68.6    26    1.7   324     3.4   864.8    0.00 
 297   11:50   0.62   70.4    24    0.8   329     3.5   864.5    0.00 
 297   12:00   0.62   71.8    25    2.6   304     7.0   864.3    0.00 
 297   12:10   0.62   72.7    21    3.3   314     8.5   864.2    0.00 
 297   12:20   0.62   74.9    18    5.0   244    19.6   864.0    0.00 
 297   12:30   0.62   77.3    13   16.1   215    26.5   863.8    0.00 
 297   12:40   0.61   77.4    13   18.0   222    29.3   863.6    0.00 
 297   12:50   0.60   77.7    13   17.1   218    26.8   863.5    0.00 
 297   13:00   0.60   77.3    13   18.9   223    27.8   863.4    0.00 
 297   13:10   0.59   77.4    13   16.7   224    25.0   863.3    0.00 
 297   13:20   0.57   77.9    13   15.6   218    23.1   863.3    0.00 
 297   13:30   0.56   77.6    13   16.2   222    24.3   863.2    0.00 
 297   13:40   0.55   77.9    13   17.2   221    26.5   863.0    0.00 
 297   13:50   0.53   77.6    13   16.8   224    26.2   863.0    0.00 
 297   14:00   0.52   77.5    13   17.4   225    24.3   863.0    0.00 
 297   14:10   0.50   77.5    13   16.2   218    26.9   862.9    0.00 
 297   14:20   0.48   77.7    13   14.9   221    24.3   862.9    0.00 
 297   14:30   0.46   77.2    13   17.6   224    26.2   862.8    0.00 
 297   14:40   0.45   77.1    13   16.8   221    24.4   862.8    0.00 
 297   14:50   0.42   77.1    13   15.8   222    28.4   862.8    0.00 
 297   15:00   0.40   77.2    13   14.8   217    22.6   862.8    0.00 
 297   15:10   0.37   77.1    13   15.2   214    28.4   862.7    0.00 
 297   15:20   0.34   76.6    13   15.4   214    25.9   862.6    0.00 
 297   15:30   0.31   76.3    14   13.4   226    21.0   862.6    0.00 
 297   15:40   0.28   76.0    13   13.8   218    23.4   862.6    0.00 
 297   15:50   0.25   75.8    13   14.0   222    24.7   862.6    0.00 
 297   16:00   0.22   75.3    14   12.5   220    21.1   862.5    0.00 
 297   16:10   0.19   74.9    14   12.8   215    19.1   862.5    0.00 
 297   16:20   0.17   74.4    14   13.4   214    25.2   862.4    0.00 
 297   16:30   0.14   73.7    14   11.7   210    17.5   862.4    0.00 
 297   16:40   0.10   73.1    14   11.8   215    19.4   862.5    0.00 
 297   16:50   0.07   72.2    14   11.1   214    23.8   862.4    0.00 
 297   17:00   0.01   71.1    15   10.2   218    15.1   862.4    0.00 
 297   17:10   0.01   70.3    15    9.6   216    15.9   862.3    0.00 
 297   17:20   0.00   69.8    16    8.6   209    15.3   862.3    0.00 
 297   17:30   0.00   69.1    16    7.4   201    12.2   862.3    0.00 
 297   17:40   0.00   69.1    16    9.7   198    18.5   862.3    0.00 
 297   17:50   0.00   67.6    18    7.4   174    13.2   862.4    0.00 
 297   18:00   0.00   63.8    21    5.5   167     7.2   862.4    0.00 
 297   18:10   0.00   62.6    23    5.3   178     8.6   862.4    0.00 
 297   18:20   0.00   62.7    24    6.7   196     8.9   862.4    0.00 
 297   18:30   0.00   62.7    24    7.0   194     9.1   862.5    0.00 
 297   18:40   0.00   62.7    24    7.0   191     9.3   862.5    0.00 
 297   18:50   0.00   62.3    25    6.4   195     9.5   862.5    0.00 
 297   19:00   0.00   61.9    26    7.5   187    10.3   862.5    0.00 
 297   19:10   0.00   63.3    25    8.4   174    13.2   862.6    0.00 
 297   19:20   0.00   63.2    25    7.0   181    10.8   862.6    0.00 
 297   19:30   0.00   63.5    25    8.2   165    12.1   862.7    0.00 
 297   19:40   0.00   63.7    25    8.5   167    11.8   862.8    0.00 
 297   19:50   0.00   64.3    24   10.1   161    15.3   862.8    0.00 
 297   20:00   0.00   64.4    24    9.4   162    13.2   863.0    0.00 
 297   20:10   0.00   64.1    24    9.0   161    12.5   863.2    0.00 
 297   20:20   0.00   63.3    24    8.8   161    11.5   863.2    0.00 
 297   20:30   0.00   63.5    22    8.5   165    12.1   863.2    0.00 
 297   20:40   0.00   62.7    21    8.7   158    11.9   863.3    0.00 
 297   20:50   0.00   63.0    20    9.0   162    12.0   863.3    0.00 
 297   21:00   0.00   63.1    19    9.5   157    12.7   863.3    0.00 
 297   21:10   0.00   63.1    19    9.8   158    14.5   863.3    0.00 
 297   21:20   0.00   62.7    19    9.8   158    14.0   863.3    0.00 
 297   21:30   0.00   63.4    18    9.7   158    14.2   863.3    0.00 
 297   21:40   0.00   62.3    19    9.1   156    12.4   863.3    0.00 
 297   21:50   0.00   62.1    19    8.4   160    10.4   863.3    0.00 
 297   22:00   0.00   62.6    18    9.3   166    12.5   863.3    0.00 
 297   22:10   0.00   63.5    18    9.3   169    14.2   863.3    0.00 
 297   22:20   0.00   61.8    19    7.7   166    10.8   863.2    0.00 
 297   22:30   0.00   60.7    20    7.3   172    11.5   863.2    0.00 
 297   22:40   0.00   61.1    20    8.4   165    13.6   863.1    0.00 
 297   22:50   0.00   60.7    20    7.2   173    11.0   863.1    0.00 
 297   23:00   0.00   60.2    20    7.1   177    14.5   863.0    0.00 
 297   23:10   0.00   59.9    20    7.8   180    14.5   862.9    0.00 
 297   23:20   0.00   61.4    19    7.3   184    11.4   862.8    0.00 
 297   23:30   0.00   61.4    19    8.0   176    14.5   862.9    0.00 
 297   23:40   0.00   61.5    19    7.3   185    13.2   862.8    0.00 
 297   23:50   0.00   59.6    20    7.6   175    13.8   862.7    0.00 
 298    0:00   0.00   60.6    20    7.7   173    11.1   862.6    0.00 
 298    0:10   0.00   59.9    20    6.6   167    12.3   862.5    0.00 
 298    0:20   0.00   62.3    18    7.7   161    11.8   862.5    0.00 
 298    0:30   0.00   62.7    18    5.9   166    12.6   862.4    0.00 
 298    0:40   0.00   60.8    19    4.3   191     6.9   862.3    0.00 
 298    0:50   0.00   60.2    19    4.4   173     7.8   862.2    0.00 
 298    1:00   0.00   61.0    18    1.8   212     5.0   862.1    0.00 
 298    1:10   0.00   61.1    18    3.3   182     6.0   862.0    0.00 
 298    1:20   0.00   64.1    16    4.8   226    11.0   861.9    0.00 
 298    1:30   0.00   63.3    16    3.3   126     6.1   861.9    0.00 
 298    1:40   0.00   62.8    17    6.6   132    17.2   861.9    0.00 
 298    1:50   0.00   64.9    15    6.9   164    27.8   861.8    0.00 
 298    2:00   0.00   64.6    16    5.5    89    11.2   861.6    0.00 
 298    2:10   0.00   63.0    17    4.9   115    10.4   861.3    0.00 
 298    2:20   0.00   60.4    20    3.9   195     8.6   861.4    0.00 
 298    2:30   0.00   60.5    19    2.1   223     7.3   861.2    0.00 
 298    2:40   0.00   59.7    20    2.2   256     4.6   861.2    0.00 
 298    2:50   0.00   61.7    20    3.1   244     9.9   860.9    0.00 
 298    3:00   0.00   60.7    21    2.9   165     6.0   860.9    0.00 
 298    3:10   0.00   57.3    24    3.3   155     7.4   860.9    0.00 
 298    3:20   0.00   60.2    21    3.1   151     8.3   860.8    0.00 
 298    3:30   0.00   59.4    22    4.5   199     8.1   860.7    0.00 
 298    3:40   0.00   59.5    21    5.5   189    15.1   860.6    0.00 
 298    3:50   0.00   59.5    22    4.8   159     7.7   860.7    0.00 
 298    4:00   0.00   58.1    24    6.4   178    12.2   860.8    0.00 
 298    4:10   0.00   60.3    25    9.8   177    16.5   860.8    0.00 
 298    4:20   0.00   60.5    25    9.3   168    18.9   860.8    0.00 
 298    4:30   0.00   60.0    26    7.3   167    13.7   860.9    0.00 
 298    4:40   0.00   59.1    28    6.5   152    12.9   860.8    0.00 
 298    4:50   0.00   57.8    29    6.6   160     9.3   860.9    0.00 
 298    5:00   0.00   57.5    30    7.5   164    10.2   860.9    0.00 
 298    5:10   0.00   58.1    30    8.4   169    12.9   860.8    0.00 
 298    5:20   0.00   57.4    31    6.5   176    10.2   861.0    0.00 
 298    5:30   0.00   57.3    31    7.2   179    11.5   861.0    0.00 
 298    5:40   0.00   57.5    31    7.9   197    14.6   861.0    0.00 
 298    5:50   0.00   57.0    31    6.1   196     9.9   861.1    0.00 
 298    6:00   0.00   56.8    30    7.8   187    15.3   861.1    0.00 
 298    6:10   0.00   57.4    28    8.2   189    14.5   861.1    0.00 
 298    6:20   0.00   59.5    26   16.2   201    26.7   861.0    0.00 

Return to Sparks, Nevada, UNR Ag Experiment Farm graphs page.


Western Regional Climate Center,wrcc@dri.edu